2018/09/21 10:30 VVNB 211030Z 09006KT 070V130 CAVOK 32/22 Q1009 NOSIG
2018/09/21 10:30 VVDN 211030Z 03006KT 9999 FEW013 FEW015CB 29/24 Q1010 NOSIG
2018/09/21 10:30 VVTS 211030Z 12006KT 100V160 9999 SCT015 BKN050 29/25 Q1008 NOSIG
2018/09/21 10:30 VVPB 211030Z 06004KT 9999 FEW020 30/24 Q1011 NOSIG

Powered by MinhViet JSC.